createdAt,value
2018-04-25T00:02:07.935Z,15.80
2018-04-25T00:04:35.378Z,15.80
2018-04-25T00:07:02.887Z,15.90
2018-04-25T00:09:30.352Z,15.90
2018-04-25T00:11:57.824Z,15.90
2018-04-25T00:14:25.311Z,15.90
2018-04-25T00:16:52.923Z,15.80
2018-04-25T00:19:20.375Z,15.80
2018-04-25T00:21:47.864Z,15.80
2018-04-25T00:24:15.336Z,15.90
2018-04-25T00:26:43.055Z,15.80
2018-04-25T00:29:10.542Z,15.70
2018-04-25T00:31:38.036Z,15.70
2018-04-25T00:34:06.250Z,15.60
2018-04-25T00:36:33.756Z,15.60
2018-04-25T00:39:01.361Z,15.70
2018-04-25T00:41:28.823Z,15.70
2018-04-25T00:43:56.288Z,15.60
2018-04-25T00:46:23.743Z,15.40
2018-04-25T00:48:51.291Z,15.40
2018-04-25T00:51:18.718Z,15.30
2018-04-25T00:53:47.024Z,15.30
2018-04-25T00:56:14.480Z,15.30
2018-04-25T00:58:41.995Z,15.30
2018-04-25T01:01:09.456Z,15.30
2018-04-25T01:03:36.985Z,15.30
2018-04-25T01:06:04.489Z,15.30
2018-04-25T01:08:32.716Z,15.20
2018-04-25T01:11:00.152Z,15.20
2018-04-25T01:13:27.616Z,15.30
2018-04-25T01:15:55.080Z,15.40
2018-04-25T01:18:22.573Z,15.50
2018-04-25T01:20:50.252Z,15.40
2018-04-25T01:23:24.623Z,15.40
2018-04-25T01:25:58.555Z,15.50
2018-04-25T01:28:26.090Z,15.60
2018-04-25T01:30:57.134Z,15.60
2018-04-25T01:33:39.479Z,15.60
2018-04-25T01:39:13.911Z,15.40
2018-04-25T01:41:42.891Z,15.50
2018-04-25T01:47:20.742Z,15.60
2018-04-25T01:49:58.802Z,15.70
2018-04-25T01:52:38.303Z,15.80
2018-04-25T01:55:17.729Z,15.70
2018-04-25T01:57:57.052Z,15.60
2018-04-25T02:00:37.132Z,15.60
2018-04-25T02:03:04.083Z,15.60
2018-04-25T02:05:31.632Z,15.80
2018-04-25T02:07:59.069Z,15.80
2018-04-25T02:10:26.574Z,15.80
2018-04-25T02:12:54.064Z,15.80
2018-04-25T02:15:22.278Z,15.70
2018-04-25T02:17:49.716Z,15.70
2018-04-25T02:20:17.254Z,15.80
2018-04-25T02:22:44.699Z,15.90
2018-04-25T02:25:13.676Z,15.70
2018-04-25T02:27:41.171Z,15.80
2018-04-25T02:30:09.413Z,15.80
2018-04-25T02:32:37.035Z,15.80
2018-04-25T02:35:04.490Z,15.80
2018-04-25T02:37:31.947Z,15.70
2018-04-25T02:39:59.466Z,15.80
2018-04-25T02:42:26.963Z,15.70
2018-04-25T02:44:54.397Z,15.80
2018-04-25T02:47:22.697Z,15.80
2018-04-25T02:49:50.128Z,15.70
2018-04-25T02:52:18.355Z,15.80
2018-04-25T02:54:45.831Z,15.70
2018-04-25T02:57:13.381Z,15.80
2018-04-25T02:59:40.834Z,15.80
2018-04-25T03:02:08.358Z,15.80
2018-04-25T03:04:35.868Z,15.80
2018-04-25T03:07:03.309Z,15.70
2018-04-25T03:09:30.862Z,15.80
2018-04-25T03:11:58.389Z,15.90
2018-04-25T03:14:25.923Z,15.90
2018-04-25T03:16:54.237Z,15.80
2018-04-25T03:19:21.647Z,15.90
2018-04-25T03:21:49.883Z,15.80
2018-04-25T03:24:17.401Z,15.80
2018-04-25T03:26:44.836Z,15.80
2018-04-25T03:29:13.098Z,15.90
2018-04-25T03:31:40.668Z,15.80
2018-04-25T03:34:08.904Z,15.90
2018-04-25T03:36:36.352Z,15.90
2018-04-25T03:39:03.840Z,15.90
2018-04-25T03:41:31.312Z,15.90
2018-04-25T03:43:58.750Z,15.80
2018-04-25T03:46:26.320Z,15.80
2018-04-25T03:48:53.878Z,15.80
2018-04-25T03:51:21.439Z,15.90
2018-04-25T03:53:48.903Z,15.90
2018-04-25T03:56:17.112Z,16.00
2018-04-25T03:58:44.579Z,15.90
2018-04-25T04:01:12.212Z,15.90
2018-04-25T04:03:40.532Z,15.90
2018-04-25T04:06:07.993Z,15.90
2018-04-25T04:08:35.444Z,16.00
2018-04-25T04:11:02.906Z,16.00
2018-04-25T04:13:30.442Z,15.90
2018-04-25T04:15:57.953Z,15.70
2018-04-25T04:18:25.417Z,15.70
2018-04-25T04:20:53.682Z,15.80
2018-04-25T04:23:21.161Z,15.80
2018-04-25T04:25:49.371Z,15.80
2018-04-25T04:28:16.835Z,15.80
2018-04-25T04:30:44.310Z,15.90
2018-04-25T04:33:11.849Z,15.90
2018-04-25T04:35:39.326Z,15.80
2018-04-25T04:38:07.010Z,15.90
2018-04-25T04:40:34.617Z,16.00
2018-04-25T04:43:02.050Z,15.90
2018-04-25T04:45:29.559Z,15.90
2018-04-25T04:47:57.111Z,16.00
2018-04-25T04:50:24.581Z,16.00
2018-04-25T04:52:52.067Z,16.00
2018-04-25T04:55:20.317Z,15.90
2018-04-25T04:57:47.889Z,15.90
2018-04-25T05:00:15.354Z,15.90
2018-04-25T05:02:43.567Z,16.00
2018-04-25T05:05:11.001Z,16.00
2018-04-25T05:07:38.516Z,16.00
2018-04-25T05:10:06.073Z,15.90
2018-04-25T05:12:33.554Z,15.90
2018-04-25T05:15:01.057Z,16.00
2018-04-25T05:17:28.540Z,16.00
2018-04-25T05:19:55.983Z,15.90
2018-04-25T05:22:23.447Z,15.90
2018-04-25T05:24:50.915Z,15.90
2018-04-25T05:27:18.400Z,15.90
2018-04-25T05:29:46.657Z,15.80
2018-04-25T05:32:14.273Z,15.80
2018-04-25T05:34:41.653Z,15.80
2018-04-25T05:37:09.123Z,16.00
2018-04-25T05:39:36.573Z,16.10
2018-04-25T05:42:04.204Z,16.20
2018-04-25T05:44:31.650Z,16.20
2018-04-25T05:46:59.116Z,16.20
2018-04-25T05:49:26.584Z,16.40
2018-04-25T05:51:54.134Z,16.40
2018-04-25T05:54:21.604Z,16.40
2018-04-25T05:56:49.078Z,16.40
2018-04-25T05:59:16.521Z,16.30
2018-04-25T06:01:44.060Z,16.10
2018-04-25T06:04:11.621Z,16.00
2018-04-25T06:06:39.075Z,16.10
2018-04-25T06:09:06.636Z,16.10
2018-04-25T06:11:34.079Z,16.10
2018-04-25T06:14:01.528Z,16.10
2018-04-25T06:16:29.787Z,16.20
2018-04-25T06:18:58.012Z,16.10
2018-04-25T06:21:25.467Z,16.00
2018-04-25T06:23:52.953Z,16.00
2018-04-25T06:26:20.395Z,16.10
2018-04-25T06:28:47.905Z,16.10
2018-04-25T06:31:16.103Z,16.10
2018-04-25T06:33:43.564Z,16.20
2018-04-25T06:36:11.022Z,16.30
2018-04-25T06:38:38.475Z,16.40
2018-04-25T06:41:05.971Z,16.40
2018-04-25T06:43:33.419Z,16.50
2018-04-25T06:46:00.900Z,16.40
2018-04-25T06:48:28.710Z,16.50
2018-04-25T06:50:56.143Z,16.40
2018-04-25T06:53:23.608Z,16.40
2018-04-25T06:55:51.099Z,16.30
2018-04-25T06:58:18.564Z,16.10
2018-04-25T07:00:46.027Z,16.10
2018-04-25T07:03:13.512Z,16.10
2018-04-25T07:05:41.006Z,16.00
2018-04-25T07:08:08.713Z,16.00
2018-04-25T07:10:36.151Z,15.90
2018-04-25T07:13:03.588Z,15.70
2018-04-25T07:15:31.051Z,15.60
2018-04-25T07:17:58.535Z,15.70
2018-04-25T07:20:26.004Z,15.70
2018-04-25T07:22:53.510Z,15.80
2018-04-25T07:25:20.948Z,15.90
2018-04-25T07:27:48.423Z,16.00
2018-04-25T07:30:16.088Z,16.00
2018-04-25T07:32:43.531Z,15.80
2018-04-25T07:35:11.047Z,16.00
2018-04-25T07:37:38.510Z,15.80
2018-04-25T07:40:05.975Z,15.90
2018-04-25T07:42:34.395Z,15.30
2018-04-25T07:45:02.007Z,15.30
2018-04-25T07:47:29.560Z,15.10
2018-04-25T07:49:57.019Z,14.60
2018-04-25T07:52:24.458Z,14.40
2018-04-25T07:54:51.923Z,14.30
2018-04-25T07:57:19.391Z,14.30
2018-04-25T07:59:46.856Z,14.20
2018-04-25T08:02:14.408Z,14.30
2018-04-25T08:04:41.895Z,14.50
2018-04-25T08:07:10.149Z,14.50
2018-04-25T08:09:37.682Z,14.50
2018-04-25T08:12:17.083Z,14.70
2018-04-25T08:14:56.339Z,14.90
2018-04-25T08:17:35.855Z,14.90
2018-04-25T08:20:15.118Z,15.00
2018-04-25T08:22:42.609Z,15.20
2018-04-25T08:25:11.640Z,16.20
2018-04-25T08:27:39.075Z,16.20
2018-04-25T08:30:06.608Z,16.80
2018-04-25T08:32:34.167Z,18.00
2018-04-25T08:35:01.649Z,19.80
2018-04-25T08:37:29.859Z,19.50
2018-04-25T08:39:57.305Z,19.40
2018-04-25T08:42:24.762Z,18.20
2018-04-25T08:44:52.280Z,17.40
2018-04-25T08:47:19.715Z,16.80
2018-04-25T08:49:47.183Z,16.40
2018-04-25T08:52:14.631Z,15.90
2018-04-25T08:54:42.107Z,16.20
2018-04-25T08:57:10.321Z,16.90
2018-04-25T08:59:37.801Z,16.90
2018-04-25T09:02:05.288Z,16.90
2018-04-25T09:04:32.789Z,17.00
2018-04-25T09:07:00.217Z,18.90
2018-04-25T09:09:28.434Z,19.40
2018-04-25T09:11:55.906Z,19.30
2018-04-25T09:14:23.349Z,18.90
2018-04-25T09:16:50.796Z,19.70
2018-04-25T09:19:18.280Z,21.20
2018-04-25T09:21:45.748Z,22.30
2018-04-25T09:24:13.216Z,23.10
2018-04-25T09:26:40.694Z,23.50
2018-04-25T09:29:08.915Z,22.20
2018-04-25T09:31:36.383Z,22.10
2018-04-25T09:34:05.414Z,20.10
2018-04-25T09:36:33.621Z,19.70
2018-04-25T09:39:01.123Z,19.70
2018-04-25T09:41:28.559Z,19.40
2018-04-25T09:43:56.004Z,19.10
2018-04-25T09:46:23.500Z,18.70
2018-04-25T09:48:50.958Z,18.30
2018-04-25T09:51:18.427Z,18.20
2018-04-25T09:53:46.684Z,17.70
2018-04-25T09:56:14.128Z,17.70
2018-04-25T09:58:41.592Z,18.00
2018-04-25T10:01:09.071Z,19.10
2018-04-25T10:03:42.845Z,20.40
2018-04-25T10:06:10.505Z,20.40
2018-04-25T10:08:37.988Z,21.50
2018-04-25T10:11:05.427Z,22.40
2018-04-25T10:13:32.879Z,23.00
2018-04-25T10:16:00.408Z,23.30
2018-04-25T10:18:27.835Z,24.30
2018-04-25T10:20:55.281Z,24.30
2018-04-25T10:23:23.627Z,24.30
2018-04-25T10:25:51.100Z,24.20
2018-04-25T10:28:18.608Z,22.10
2018-04-25T10:30:46.105Z,21.50
2018-04-25T10:33:14.303Z,21.80
2018-04-25T10:35:42.528Z,21.70
2018-04-25T10:38:10.014Z,21.60
2018-04-25T10:40:37.464Z,20.60
2018-04-25T10:43:04.913Z,20.60
2018-04-25T10:45:32.390Z,20.40
2018-04-25T10:47:59.828Z,20.10
2018-04-25T10:50:27.291Z,19.80
2018-04-25T10:52:54.745Z,18.90
2018-04-25T10:55:23.441Z,18.30
2018-04-25T10:57:51.602Z,18.10
2018-04-25T11:00:19.029Z,18.10
2018-04-25T11:02:46.514Z,18.30
2018-04-25T11:05:14.040Z,19.20
2018-04-25T11:07:41.514Z,20.80
2018-04-25T11:10:09.260Z,19.80
2018-04-25T11:12:36.720Z,19.70
2018-04-25T11:15:04.175Z,19.60
2018-04-25T11:17:31.675Z,18.20
2018-04-25T11:19:59.114Z,18.10
2018-04-25T11:22:27.363Z,18.10
2018-04-25T11:24:54.880Z,18.00
2018-04-25T11:27:22.340Z,19.60
2018-04-25T11:29:49.784Z,21.60
2018-04-25T11:32:17.888Z,22.10
2018-04-25T11:34:45.358Z,22.10
2018-04-25T11:37:12.801Z,22.60
2018-04-25T11:39:41.025Z,20.30
2018-04-25T11:42:08.469Z,20.30
2018-04-25T11:44:36.058Z,19.90
2018-04-25T11:47:03.541Z,21.50
2018-04-25T11:49:31.709Z,22.70
2018-04-25T11:51:59.995Z,22.80
2018-04-25T11:54:28.196Z,23.60
2018-04-25T11:56:55.680Z,23.60
2018-04-25T11:59:23.192Z,22.60
2018-04-25T12:01:50.633Z,23.10
2018-04-25T12:04:18.874Z,25.20
2018-04-25T12:06:46.365Z,25.20
2018-04-25T12:09:14.643Z,24.70
2018-04-25T12:11:42.851Z,24.20
2018-04-25T12:14:10.353Z,24.30
2018-04-25T12:16:37.842Z,24.20
2018-04-25T12:19:05.309Z,24.00
2018-04-25T12:21:32.788Z,23.20
2018-04-25T12:24:00.246Z,20.50
2018-04-25T12:26:27.728Z,19.40
2018-04-25T12:28:55.161Z,19.10
2018-04-25T12:31:22.627Z,18.70
2018-04-25T12:33:50.088Z,18.80
2018-04-25T12:36:17.559Z,19.10
2018-04-25T12:38:45.000Z,18.60
2018-04-25T12:41:12.449Z,19.20
2018-04-25T12:43:39.917Z,19.50
2018-04-25T12:46:07.378Z,20.30
2018-04-25T12:48:34.827Z,20.30
2018-04-25T12:51:02.322Z,20.80
2018-04-25T12:53:30.645Z,21.00
2018-04-25T12:55:58.120Z,20.90
2018-04-25T12:58:25.595Z,20.40
2018-04-25T13:00:53.086Z,19.30
2018-04-25T13:03:21.409Z,19.40
2018-04-25T13:05:48.883Z,20.30
2018-04-25T13:08:16.324Z,20.80
2018-04-25T13:10:43.855Z,20.00
2018-04-25T13:13:11.309Z,19.90
2018-04-25T13:15:38.741Z,19.70
2018-04-25T13:18:07.043Z,19.50
2018-04-25T13:20:34.602Z,19.50
2018-04-25T13:23:02.106Z,19.90
2018-04-25T13:25:29.542Z,20.40
2018-04-25T13:27:57.012Z,20.60
2018-04-25T13:30:24.515Z,20.20
2018-04-25T13:32:51.976Z,20.60
2018-04-25T13:35:19.503Z,20.10
2018-04-25T13:37:46.984Z,19.80
2018-04-25T13:40:16.181Z,19.40
2018-04-25T13:42:44.410Z,19.10
2018-04-25T13:45:11.848Z,19.10
2018-04-25T13:47:39.306Z,18.30
2018-04-25T13:50:06.786Z,18.30
2018-04-25T13:52:34.336Z,18.20
2018-04-25T13:55:01.870Z,18.30
2018-04-25T13:57:29.376Z,18.40
2018-04-25T13:59:56.873Z,19.10
2018-04-25T14:02:24.320Z,19.50
2018-04-25T14:04:51.894Z,19.80
2018-04-25T14:07:19.330Z,20.10
2018-04-25T14:09:46.786Z,20.00
2018-04-25T14:12:15.037Z,20.00
2018-04-25T14:14:42.477Z,20.00
2018-04-25T14:17:09.985Z,19.90
2018-04-25T14:19:37.453Z,19.80
2018-04-25T14:22:04.887Z,19.80
2018-04-25T14:24:33.125Z,19.80
2018-04-25T14:27:00.601Z,19.80
2018-04-25T14:29:28.069Z,19.50
2018-04-25T14:31:56.313Z,19.90
2018-04-25T14:34:23.758Z,19.90
2018-04-25T14:36:51.224Z,19.80
2018-04-25T14:39:18.746Z,19.10
2018-04-25T14:41:46.189Z,18.80
2018-04-25T14:44:13.652Z,18.50
2018-04-25T14:46:41.133Z,17.90
2018-04-25T14:49:08.678Z,17.70
2018-04-25T14:51:36.118Z,17.80
2018-04-25T14:54:03.622Z,17.70
2018-04-25T14:56:31.174Z,18.10
2018-04-25T14:58:58.818Z,18.10
2018-04-25T15:01:26.314Z,18.30
2018-04-25T15:03:53.771Z,18.30
2018-04-25T15:06:21.411Z,18.30
2018-04-25T15:08:48.915Z,18.40
2018-04-25T15:11:16.349Z,18.70
2018-04-25T15:13:43.814Z,18.60
2018-04-25T15:16:11.287Z,18.70
2018-04-25T15:18:39.605Z,18.60
2018-04-25T15:21:07.060Z,18.60
2018-04-25T15:23:34.563Z,18.40
2018-04-25T15:26:02.821Z,18.50
2018-04-25T15:28:30.322Z,18.50
2018-04-25T15:30:58.550Z,18.50
2018-04-25T15:33:25.992Z,18.50
2018-04-25T15:35:53.509Z,18.70
2018-04-25T15:38:20.944Z,18.70
2018-04-25T15:40:50.196Z,18.90
2018-04-25T15:43:18.046Z,18.90
2018-04-25T15:45:45.578Z,18.70
2018-04-25T15:48:13.814Z,18.70
2018-04-25T15:50:41.305Z,18.70
2018-04-25T15:53:09.603Z,18.50
2018-04-25T15:55:37.050Z,18.50
2018-04-25T15:58:04.797Z,18.50
2018-04-25T16:00:32.299Z,18.30
2018-04-25T16:02:59.781Z,18.40
2018-04-25T16:05:27.278Z,18.30
2018-04-25T16:07:55.486Z,18.50
2018-04-25T16:10:22.954Z,18.40
2018-04-25T16:12:50.453Z,18.50
2018-04-25T16:15:18.693Z,18.60
2018-04-25T16:17:46.162Z,18.60
2018-04-25T16:20:13.883Z,18.40
2018-04-25T16:22:41.721Z,18.40
2018-04-25T16:25:09.236Z,18.30
2018-04-25T16:27:36.893Z,18.20
2018-04-25T16:30:04.387Z,18.10
2018-04-25T16:32:31.847Z,17.90
2018-04-25T16:35:00.121Z,17.80
2018-04-25T16:37:28.444Z,17.60
2018-04-25T16:39:55.957Z,17.60
2018-04-25T16:42:24.288Z,17.70
2018-04-25T16:44:51.945Z,17.70
2018-04-25T16:47:19.465Z,17.70
2018-04-25T16:49:47.014Z,17.40
2018-04-25T16:52:15.238Z,17.60
2018-04-25T16:54:42.711Z,17.60
2018-04-25T16:57:10.303Z,17.70
2018-04-25T16:59:37.806Z,17.60
2018-04-25T17:02:06.084Z,17.70
2018-04-25T17:04:33.557Z,17.70
2018-04-25T17:07:01.113Z,17.50
2018-04-25T17:09:28.624Z,17.40
2018-04-25T17:11:56.841Z,17.30
2018-04-25T17:14:24.296Z,17.30
2018-04-25T17:16:51.744Z,17.20
2018-04-25T17:19:19.222Z,17.10
2018-04-25T17:21:46.683Z,17.10
2018-04-25T17:24:14.148Z,17.20
2018-04-25T17:26:41.609Z,17.20
2018-04-25T17:29:09.078Z,17.30
2018-04-25T17:31:36.539Z,17.30
2018-04-25T17:34:04.044Z,17.30
2018-04-25T17:36:32.011Z,17.00
2018-04-25T17:38:59.582Z,16.90
2018-04-25T17:41:27.063Z,16.90
2018-04-25T17:43:54.584Z,16.80
2018-04-25T17:46:22.811Z,16.70
2018-04-25T17:48:50.320Z,16.60
2018-04-25T17:51:17.774Z,16.80
2018-04-25T17:53:45.259Z,16.70
2018-04-25T17:56:12.748Z,16.70
2018-04-25T17:58:40.991Z,16.60
2018-04-25T18:01:08.468Z,16.60
2018-04-25T18:03:35.900Z,16.70
2018-04-25T18:06:03.409Z,16.60
2018-04-25T18:08:31.778Z,16.20
2018-04-25T18:11:00.020Z,16.30
2018-04-25T18:13:27.588Z,16.20
2018-04-25T18:15:55.387Z,16.30
2018-04-25T18:18:22.896Z,16.30
2018-04-25T18:20:50.558Z,16.40
2018-04-25T18:23:18.860Z,16.30
2018-04-25T18:25:46.514Z,16.20
2018-04-25T18:28:13.974Z,16.30
2018-04-25T18:30:41.440Z,16.20
2018-04-25T18:33:08.943Z,16.20
2018-04-25T18:35:36.406Z,16.00
2018-04-25T18:38:03.871Z,16.00
2018-04-25T18:40:31.345Z,16.00
2018-04-25T18:42:58.908Z,15.90
2018-04-25T18:45:26.455Z,15.90
2018-04-25T18:47:53.918Z,16.00
2018-04-25T18:50:21.378Z,16.20
2018-04-25T18:52:48.953Z,16.10
2018-04-25T18:55:17.191Z,16.20
2018-04-25T18:57:45.508Z,16.10
2018-04-25T19:00:13.867Z,16.10
2018-04-25T19:02:41.323Z,16.00
2018-04-25T19:05:08.782Z,16.00
2018-04-25T19:07:36.306Z,16.00
2018-04-25T19:10:03.799Z,16.00
2018-04-25T19:12:31.221Z,15.70
2018-04-25T19:14:58.694Z,15.60
2018-04-25T19:17:26.247Z,15.70
2018-04-25T19:19:53.720Z,15.80
2018-04-25T19:22:21.179Z,15.80
2018-04-25T19:24:48.663Z,15.80
2018-04-25T19:27:16.195Z,15.60
2018-04-25T19:29:43.658Z,15.50
2018-04-25T19:32:11.127Z,15.70
2018-04-25T19:34:38.604Z,15.80
2018-04-25T19:37:06.808Z,15.60
2018-04-25T19:39:34.285Z,15.50
2018-04-25T19:42:01.751Z,15.50
2018-04-25T19:44:29.240Z,15.50
2018-04-25T19:46:56.721Z,15.50
2018-04-25T19:49:24.301Z,15.50
2018-04-25T19:51:51.756Z,15.50
2018-04-25T19:54:19.286Z,15.50
2018-04-25T19:56:47.512Z,15.50
2018-04-25T19:59:15.010Z,15.40
2018-04-25T20:01:43.323Z,15.40
2018-04-25T20:04:10.935Z,15.40
2018-04-25T20:06:38.393Z,15.40
2018-04-25T20:09:05.839Z,15.40
2018-04-25T20:11:33.294Z,15.40
2018-04-25T20:14:01.129Z,15.50
2018-04-25T20:16:28.617Z,15.50
2018-04-25T20:18:56.176Z,15.50
2018-04-25T20:21:23.625Z,15.50
2018-04-25T20:23:51.387Z,15.40
2018-04-25T20:26:19.016Z,15.30
2018-04-25T20:28:46.468Z,15.30
2018-04-25T20:31:13.940Z,15.30
2018-04-25T20:33:41.416Z,15.30
2018-04-25T20:36:08.868Z,15.30
2018-04-25T20:38:36.369Z,15.10
2018-04-25T20:41:04.607Z,15.00
2018-04-25T20:43:32.090Z,15.00
2018-04-25T20:45:59.645Z,14.70
2018-04-25T20:48:27.151Z,14.70
2018-04-25T20:50:54.598Z,14.60
2018-04-25T20:53:22.133Z,14.60
2018-04-25T20:55:50.359Z,14.50
2018-04-25T20:58:17.813Z,14.50
2018-04-25T21:00:45.288Z,14.30
2018-04-25T21:03:13.018Z,14.00
2018-04-25T21:05:40.883Z,14.00
2018-04-25T21:08:08.546Z,13.70
2018-04-25T21:10:36.012Z,13.70
2018-04-25T21:13:03.480Z,13.60
2018-04-25T21:15:30.965Z,13.60
2018-04-25T21:17:58.415Z,13.40
2018-04-25T21:20:25.958Z,13.50
2018-04-25T21:22:53.435Z,13.30
2018-04-25T21:25:20.878Z,13.40
2018-04-25T21:27:48.371Z,13.40
2018-04-25T21:30:16.640Z,13.30
2018-04-25T21:32:44.864Z,13.20
2018-04-25T21:35:12.344Z,13.20
2018-04-25T21:37:39.804Z,13.10
2018-04-25T21:40:07.354Z,13.10
2018-04-25T21:42:34.817Z,13.20
2018-04-25T21:45:02.347Z,13.30
2018-04-25T21:47:29.722Z,13.40
2018-04-25T21:49:57.197Z,13.50
2018-04-25T21:52:24.661Z,13.50
2018-04-25T21:54:52.163Z,13.50
2018-04-25T21:57:19.626Z,13.50
2018-04-25T21:59:47.061Z,13.30
2018-04-25T22:02:14.641Z,13.20
2018-04-25T22:04:42.155Z,13.10
2018-04-25T22:07:09.701Z,13.20
2018-04-25T22:09:37.190Z,13.20
2018-04-25T22:12:05.452Z,13.00
2018-04-25T22:14:33.054Z,13.00
2018-04-25T22:17:00.495Z,13.10
2018-04-25T22:19:27.952Z,13.00
2018-04-25T22:21:55.435Z,13.00
2018-04-25T22:24:22.879Z,12.90
2018-04-25T22:26:50.325Z,12.90
2018-04-25T22:29:17.895Z,12.90
2018-04-25T22:31:45.338Z,13.00
2018-04-25T22:34:12.820Z,12.90
2018-04-25T22:36:40.294Z,12.90
2018-04-25T22:39:07.764Z,12.80
2018-04-25T22:41:35.243Z,12.80
2018-04-25T22:44:03.455Z,12.60
2018-04-25T22:46:30.910Z,12.60
2018-04-25T22:48:58.381Z,12.70
2018-04-25T22:51:25.846Z,12.50
2018-04-25T22:53:53.362Z,12.60
2018-04-25T22:56:20.815Z,12.60
2018-04-25T22:58:49.050Z,12.50
2018-04-25T23:01:16.524Z,12.50
2018-04-25T23:03:43.981Z,12.50
2018-04-25T23:06:11.466Z,12.60
2018-04-25T23:08:38.946Z,12.50
2018-04-25T23:11:06.400Z,12.60
2018-04-25T23:13:33.854Z,12.60
2018-04-25T23:16:01.311Z,12.60
2018-04-25T23:18:28.874Z,12.60
2018-04-25T23:20:56.347Z,12.60
2018-04-25T23:23:23.821Z,12.60
2018-04-25T23:25:51.737Z,12.60
2018-04-25T23:28:19.215Z,12.60
2018-04-25T23:30:46.767Z,12.60
2018-04-25T23:33:14.225Z,12.50
2018-04-25T23:35:41.674Z,12.50
2018-04-25T23:38:09.128Z,12.40
2018-04-25T23:40:36.580Z,12.40
2018-04-25T23:43:04.067Z,12.40
2018-04-25T23:45:31.541Z,12.30
2018-04-25T23:47:59.067Z,12.40
2018-04-25T23:50:26.511Z,12.20
2018-04-25T23:52:53.965Z,12.20
2018-04-25T23:55:21.432Z,12.20
2018-04-25T23:57:48.901Z,12.10
